Time;durP1;ratioP1;P1;durP2;ratioP2;P2;SDS_P1;SDS_P2;PMS_P1;PMS_P2;Temp;Humidity;BMP_temperature;BMP_pressure;BME280_temperature;BME280_humidity;BME280_pressure;Samples;Min_cycle;Max_cycle;Signal;HPM_P1;HPM_P2
2022/07/04 00:00:55;;;;;;;3.80;1.60;;;;;;;22.97;46.28;99147.00;6068943;23;20153;-88
2022/07/04 00:03:22;;;;;;;3.00;1.30;;;;;;;22.95;46.45;99141.00;6044392;23;20516;-88
2022/07/04 00:05:48;;;;;;;4.33;1.50;;;;;;;22.82;47.14;99148.59;6068216;23;20499;-88
2022/07/04 00:08:15;;;;;;;3.07;1.57;;;;;;;22.71;47.05;99151.53;6068588;23;20204;-88
2022/07/04 00:10:42;;;;;;;2.47;1.33;;;;;;;22.60;47.73;99151.75;6067918;23;20479;-88
2022/07/04 00:13:08;;;;;;;3.17;1.40;;;;;;;22.36;48.89;99152.41;6068860;23;20198;-88
2022/07/04 00:15:35;;;;;;;2.63;1.20;;;;;;;22.31;48.85;99160.03;6068585;23;20165;-87
2022/07/04 00:18:02;;;;;;;1.87;1.00;;;;;;;22.38;48.46;99168.28;6069002;23;20595;-87
2022/07/04 00:20:29;;;;;;;6.40;1.60;;;;;;;22.40;48.28;99155.59;6069194;23;20184;-87
2022/07/04 00:22:56;;;;;;;2.50;1.10;;;;;;;22.20;49.15;99156.75;6068874;23;20146;-88
2022/07/04 00:25:23;;;;;;;1.47;0.83;;;;;;;22.27;48.52;99155.16;6043889;23;20605;-87
2022/07/04 00:27:49;;;;;;;2.63;1.40;;;;;;;22.25;48.79;99147.28;6068736;23;20224;-87
2022/07/04 00:30:16;;;;;;;3.07;1.43;;;;;;;22.23;48.78;99151.09;6068915;23;20153;-87
2022/07/04 00:32:42;;;;;;;4.47;1.73;;;;;;;22.13;49.09;99145.84;6043774;23;20248;-87
2022/07/04 00:35:09;;;;;;;3.20;1.40;;;;;;;22.06;49.28;99149.28;6067684;23;20224;-87
2022/07/04 00:37:36;;;;;;;3.20;1.57;;;;;;;21.95;49.72;99153.88;6068887;23;20156;-87
2022/07/04 00:40:03;;;;;;;5.20;1.67;;;;;;;21.97;49.55;99146.53;6068668;23;20161;-88
2022/07/04 00:42:30;;;;;;;4.20;1.80;;;;;;;22.06;49.57;99143.97;6068764;23;20188;-88
2022/07/04 00:44:56;;;;;;;3.90;1.67;;;;;;;22.06;49.51;99139.47;6043885;23;20163;-87
2022/07/04 00:47:23;;;;;;;5.70;2.07;;;;;;;21.93;50.06;99136.34;6044175;23;20153;-88
2022/07/04 00:49:49;;;;;;;7.07;1.90;;;;;;;21.85;50.47;99142.41;6067486;23;20157;-87
2022/07/04 00:52:17;;;;;;;3.23;1.43;;;;;;;21.77;50.90;99139.66;6067234;23;20167;-87
2022/07/04 00:54:45;;;;;;;3.60;1.50;;;;;;;21.63;51.75;99136.63;6068574;23;20173;-88
2022/07/04 00:57:11;;;;;;;6.10;2.10;;;;;;;21.59;51.96;99135.28;6067895;23;20157;-88
2022/07/04 00:59:38;;;;;;;4.27;2.13;;;;;;;21.49;52.26;99145.16;6067199;23;20153;-88
2022/07/04 01:02:05;;;;;;;4.50;2.43;;;;;;;21.35;52.96;99138.50;6067731;23;20192;-87
2022/07/04 01:04:32;;;;;;;3.90;1.87;;;;;;;21.19;53.36;99149.81;6043334;23;20173;-88
2022/07/04 01:06:58;;;;;;;2.87;1.50;;;;;;;21.20;52.97;99145.31;6068466;23;20160;-88
2022/07/04 01:09:25;;;;;;;2.90;1.30;;;;;;;21.18;52.75;99141.94;6043352;23;20209;-88
2022/07/04 01:11:51;;;;;;;3.73;1.40;;;;;;;21.13;53.10;99139.72;6067343;23;20176;-88
2022/07/04 01:14:18;;;;;;;2.43;1.27;;;;;;;21.17;53.01;99146.41;6067420;23;20193;-88
2022/07/04 01:16:45;;;;;;;2.60;1.20;;;;;;;21.25;52.32;99138.53;6068551;23;20154;-88
2022/07/04 01:19:11;;;;;;;3.83;1.40;;;;;;;21.32;52.02;99136.97;6068522;23;20231;-88
2022/07/04 01:21:38;;;;;;;4.13;1.33;;;;;;;21.45;51.48;99133.94;6067304;23;20153;-88
2022/07/04 01:24:05;;;;;;;3.47;1.50;;;;;;;21.44;51.72;99130.44;6068033;23;20175;-88
2022/07/04 01:26:31;;;;;;;2.47;1.03;;;;;;;21.41;51.73;99128.06;6067002;23;20248;-88
2022/07/04 01:28:58;;;;;;;3.43;1.27;;;;;;;21.31;51.81;99116.63;6067188;23;20605;-88
2022/07/04 01:31:25;;;;;;;1.77;0.93;;;;;;;21.34;51.81;99124.31;6043249;23;20161;-88
2022/07/04 01:33:51;;;;;;;5.60;1.10;;;;;;;21.30;51.80;99120.25;6066454;23;20311;-88
2022/07/04 01:36:18;;;;;;;2.70;1.40;;;;;;;21.27;51.72;99125.06;6067143;23;20484;-87
2022/07/04 01:38:45;;;;;;;3.43;1.50;;;;;;;21.26;52.08;99113.56;6067816;23;20483;-87
2022/07/04 01:41:11;;;;;;;2.00;1.07;;;;;;;21.19;52.35;99123.16;6067884;23;20161;-87
2022/07/04 01:43:38;;;;;;;3.00;1.33;;;;;;;21.13;52.61;99121.06;6068200;23;20149;-88
2022/07/04 01:46:05;;;;;;;2.20;1.10;;;;;;;21.02;53.04;99118.53;6066635;23;20224;-87
2022/07/04 01:48:31;;;;;;;2.47;1.07;;;;;;;21.01;53.75;99122.22;6043081;23;20186;-87
2022/07/04 01:50:58;;;;;;;3.80;1.20;;;;;;;20.98;53.73;99125.16;6067938;23;20185;-88
2022/07/04 01:53:25;;;;;;;2.00;1.13;;;;;;;20.97;53.95;99120.81;6067549;23;20181;-87
2022/07/04 01:55:51;;;;;;;4.03;1.23;;;;;;;20.88;54.30;99119.03;6067055;23;20236;-88
2022/07/04 01:58:18;;;;;;;2.67;1.17;;;;;;;20.87;54.57;99117.34;6042799;23;20246;-88
2022/07/04 02:03:29;;;;;;;3.80;1.00;;;;;;;20.81;54.07;99112.59;6067665;23;20145;-87
2022/07/04 02:05:56;;;;;;;3.40;1.23;;;;;;;20.89;53.89;99118.03;6042705;23;20498;-88
2022/07/04 02:09:14;;;;;;;3.30;1.10;;;;;;;20.97;54.31;99118.16;6067413;23;20200;-88
2022/07/04 02:11:09;;;;;;;2.97;1.00;;;;;;;20.88;54.34;99124.38;6067541;23;20164;-88
2022/07/04 02:13:36;;;;;;;2.50;1.23;;;;;;;20.91;54.07;99121.38;6066535;23;20189;-88
2022/07/04 02:16:03;;;;;;;2.27;1.23;;;;;;;20.93;53.80;99122.09;6066764;23;20195;-87
2022/07/04 02:18:29;;;;;;;2.87;1.27;;;;;;;20.91;53.48;99129.38;6067582;23;20184;-87
2022/07/04 02:20:56;;;;;;;2.63;1.27;;;;;;;20.77;53.88;99128.03;6067709;23;20153;-88
2022/07/04 02:23:22;;;;;;;2.70;1.50;;;;;;;20.67;54.37;99127.25;6066386;23;20157;-88
2022/07/04 02:25:49;;;;;;;3.40;1.40;;;;;;;20.58;54.79;99124.59;6066502;23;20172;-88
2022/07/04 02:28:18;;;;;;;3.37;1.47;;;;;;;20.62;54.61;99128.66;6067529;23;20154;-88
2022/07/04 02:30:45;;;;;;;3.53;1.47;;;;;;;20.63;54.39;99131.16;6067811;23;20157;-87
2022/07/04 02:33:12;;;;;;;2.13;1.20;;;;;;;20.62;54.62;99128.66;6067598;23;20185;-88
2022/07/04 02:35:39;;;;;;;2.23;1.17;;;;;;;20.60;54.73;99119.94;6068256;23;20601;-88
2022/07/04 02:38:06;;;;;;;2.33;1.20;;;;;;;20.56;54.81;99124.75;6042724;23;20157;-88
2022/07/04 02:40:33;;;;;;;2.60;1.63;;;;;;;20.54;54.94;99125.88;6042501;23;20153;-88
2022/07/04 02:43:00;;;;;;;2.53;1.43;;;;;;;20.46;55.21;99128.41;6067548;23;20150;-88
2022/07/04 02:45:26;;;;;;;1.97;1.10;;;;;;;20.41;55.54;99126.19;6067560;23;20230;-87
2022/07/04 02:47:53;;;;;;;2.90;1.47;;;;;;;20.47;55.32;99124.72;6043103;23;20489;-87
2022/07/04 02:50:20;;;;;;;6.03;1.70;;;;;;;20.55;55.27;99127.53;6067591;23;20574;-88
2022/07/04 02:52:46;;;;;;;3.23;1.30;;;;;;;20.48;55.47;99124.63;6066600;23;20507;-88
2022/07/04 02:55:13;;;;;;;3.67;1.50;;;;;;;20.39;55.62;99132.63;6067697;23;20154;-87
2022/07/04 02:57:39;;;;;;;6.50;2.10;;;;;;;20.36;56.02;99132.91;6042484;23;20605;-87
2022/07/04 03:00:07;;;;;;;5.13;1.50;;;;;;;20.26;56.30;99132.09;6066300;23;20243;-88
2022/07/04 03:02:33;;;;;;;3.40;1.60;;;;;;;20.22;56.57;99132.31;6066602;23;20161;-87
2022/07/04 03:05:00;;;;;;;3.30;1.53;;;;;;;20.17;56.80;99129.25;6067667;23;20232;-88
2022/07/04 03:07:27;;;;;;;3.87;1.77;;;;;;;20.16;56.53;99130.22;6068030;23;20500;-88
2022/07/04 03:09:54;;;;;;;4.83;1.47;;;;;;;20.22;56.02;99142.13;6069386;23;20204;-88
2022/07/04 03:12:21;;;;;;;4.27;1.63;;;;;;;20.18;55.93;99138.06;6069277;23;20164;-88
2022/07/04 03:14:48;;;;;;;3.33;1.60;;;;;;;20.11;56.82;99139.59;6068306;23;20171;-88
2022/07/04 03:17:14;;;;;;;2.90;1.17;;;;;;;20.10;56.84;99135.25;6069335;23;20166;-88
2022/07/04 03:19:41;;;;;;;2.37;1.23;;;;;;;20.15;56.64;99144.50;6044061;23;20239;-87
2022/07/04 03:22:07;;;;;;;2.63;1.30;;;;;;;20.10;57.17;99149.41;6067806;23;20157;-88
2022/07/04 03:24:34;;;;;;;2.67;1.43;;;;;;;20.13;56.75;99143.81;6043755;23;20553;-88
2022/07/04 03:27:01;;;;;;;4.53;1.30;;;;;;;20.12;56.92;99144.81;6067877;23;20168;-88
2022/07/04 03:29:27;;;;;;;3.20;1.47;;;;;;;20.18;56.78;99146.88;6044366;23;20485;-88
2022/07/04 03:31:53;;;;;;;3.23;1.30;;;;;;;20.16;56.98;99148.00;6043967;23;20172;-87
2022/07/04 03:34:19;;;;;;;2.60;1.37;;;;;;;20.17;56.85;99145.22;6068703;23;20501;-88
2022/07/04 03:36:46;;;;;;;2.97;1.40;;;;;;;19.98;58.22;99153.19;6068301;23;20162;-88
2022/07/04 03:39:13;;;;;;;2.03;1.27;;;;;;;19.90;58.51;99152.19;6068874;23;20282;-88
2022/07/04 03:41:39;;;;;;;2.93;1.33;;;;;;;19.89;58.67;99159.34;6068752;23;20183;-88
2022/07/04 03:44:06;;;;;;;3.83;1.67;;;;;;;19.92;58.32;99151.06;6043919;23;20157;-88
2022/07/04 03:46:33;;;;;;;2.80;1.30;;;;;;;20.09;57.55;99142.41;6068641;23;20159;-88
2022/07/04 03:49:00;;;;;;;4.40;1.53;;;;;;;20.14;57.34;99150.81;6069135;23;20156;-88
2022/07/04 03:51:27;;;;;;;3.30;1.27;;;;;;;20.09;57.57;99153.06;6043485;23;20161;-87
2022/07/04 03:53:52;;;;;;;3.33;1.30;;;;;;;20.10;57.84;99152.06;6068558;23;20173;-88
2022/07/04 03:56:19;;;;;;;4.80;1.90;;;;;;;20.17;57.88;99150.53;6068496;23;20149;-87
2022/07/04 03:58:48;;;;;;;5.07;1.30;;;;;;;20.22;57.71;99158.09;6043763;23;20164;-88
2022/07/04 04:01:17;;;;;;;3.67;2.00;;;;;;;20.26;57.44;99164.84;6067616;23;20196;-88
2022/07/04 04:06:29;;;;;;;1.97;1.27;;;;;;;20.14;57.96;99160.63;6068870;23;20217;-88
2022/07/04 04:08:57;;;;;;;3.63;1.73;;;;;;;20.18;57.81;99165.50;6067514;23;20324;-88
2022/07/04 04:11:23;;;;;;;4.23;1.73;;;;;;;20.32;57.64;99158.97;6068660;23;20192;-88
2022/07/04 04:13:50;;;;;;;2.30;1.17;;;;;;;20.42;58.07;99159.78;6068522;23;20193;-88
2022/07/04 04:16:17;;;;;;;3.73;1.50;;;;;;;20.59;57.59;99159.06;6068663;23;20153;-88
2022/07/04 04:18:44;;;;;;;2.60;1.20;;;;;;;20.63;58.46;99156.94;6068894;23;20154;-88
2022/07/04 04:21:09;;;;;;;3.40;1.27;;;;;;;20.80;57.92;99158.88;6068159;23;20236;-88
2022/07/04 04:23:36;;;;;;;4.57;2.07;;;;;;;20.92;58.16;99157.72;6068323;23;20240;-88
2022/07/04 04:26:03;;;;;;;6.83;1.80;;;;;;;21.06;57.91;99159.06;6068537;23;20150;-88
2022/07/04 04:28:29;;;;;;;7.00;1.60;;;;;;;21.22;57.46;99165.50;6067012;23;20225;-88
2022/07/04 04:30:56;;;;;;;4.23;1.63;;;;;;;21.31;57.32;99163.75;6067342;23;20687;-89
2022/07/04 04:33:23;;;;;;;2.30;1.27;;;;;;;21.42;57.19;99166.25;6068166;23;20188;-88
2022/07/04 04:35:49;;;;;;;2.33;1.33;;;;;;;21.58;57.25;99165.59;6067670;23;20224;-88
2022/07/04 04:38:16;;;;;;;5.03;1.60;;;;;;;21.63;56.19;99157.97;6068183;23;20300;-89
2022/07/04 04:40:43;;;;;;;2.60;1.23;;;;;;;21.76;55.56;99163.78;6068467;23;20153;-88
2022/07/04 04:43:10;;;;;;;2.93;1.20;;;;;;;21.81;54.60;99162.34;6043011;23;20164;-88
2022/07/04 04:45:36;;;;;;;2.53;1.13;;;;;;;21.87;55.65;99160.94;6068311;23;20542;-89
2022/07/04 04:48:04;;;;;;;3.13;1.13;;;;;;;22.01;54.92;99173.78;6068160;23;20153;-88
2022/07/04 04:50:30;;;;;;;1.73;0.93;;;;;;;22.06;54.41;99160.81;6068116;23;20507;-88
2022/07/04 04:52:57;;;;;;;3.23;1.13;;;;;;;22.20;54.25;99156.75;6043192;23;20185;-88
2022/07/04 04:55:24;;;;;;;4.53;1.17;;;;;;;22.35;53.92;99163.25;6068061;23;20156;-88
2022/07/04 04:57:51;;;;;;;3.30;1.37;;;;;;;22.50;52.40;99159.03;6066805;23;20161;-88
2022/07/04 05:00:18;;;;;;;5.37;1.40;;;;;;;22.55;52.40;99168.25;6068245;23;20157;-88
2022/07/04 05:02:45;;;;;;;9.47;1.47;;;;;;;22.64;51.45;99159.31;6068030;23;20164;-88
2022/07/04 05:05:12;;;;;;;5.40;1.53;;;;;;;22.74;52.35;99163.75;6068361;23;20150;-88
2022/07/04 05:07:38;;;;;;;2.40;0.87;;;;;;;22.95;50.80;99161.53;6043020;23;20228;-88
2022/07/04 05:10:04;;;;;;;1.90;1.00;;;;;;;23.05;50.78;99164.94;6067820;23;20208;-87
2022/07/04 05:12:32;;;;;;;3.20;1.30;;;;;;;23.26;49.79;99162.72;6067615;23;20161;-88
2022/07/04 05:14:58;;;;;;;4.43;1.53;;;;;;;23.41;49.25;99170.97;6068138;23;20156;-88
2022/07/04 05:17:25;;;;;;;16.57;3.90;;;;;;;23.48;48.25;99169.38;6042793;23;20192;-88
2022/07/04 05:19:52;;;;;;;1.87;1.07;;;;;;;23.59;47.52;99164.53;6067894;23;20232;-88
2022/07/04 05:22:19;;;;;;;2.17;1.13;;;;;;;23.76;47.13;99163.59;6066452;23;20172;-88
2022/07/04 05:24:46;;;;;;;4.77;2.37;;;;;;;23.97;46.76;99162.31;6066925;23;20153;-88
2022/07/04 05:27:12;;;;;;;4.83;1.50;;;;;;;24.09;44.99;99161.00;6066805;23;20161;-88
2022/07/04 05:29:39;;;;;;;3.03;1.00;;;;;;;24.37;44.46;99165.06;6066774;23;20161;-87
2022/07/04 05:32:07;;;;;;;3.53;1.37;;;;;;;24.55;44.06;99168.41;6066885;23;20645;-87
2022/07/04 05:34:34;;;;;;;6.97;3.80;;;;;;;24.74;43.86;99168.03;6042351;23;20596;-88
2022/07/04 05:37:01;;;;;;;4.17;1.43;;;;;;;24.94;43.04;99166.72;6068359;23;20154;-88
2022/07/04 05:39:28;;;;;;;4.93;2.03;;;;;;;25.27;43.36;99159.41;6066699;23;20153;-88
2022/07/04 05:41:55;;;;;;;6.93;1.87;;;;;;;25.58;43.31;99162.16;6066339;23;20183;-88
2022/07/04 05:44:22;;;;;;;2.80;1.23;;;;;;;25.74;42.59;99162.06;6067095;23;20153;-87
2022/07/04 05:46:48;;;;;;;3.83;1.63;;;;;;;26.01;41.90;99160.75;6068353;23;20153;-88
2022/07/04 05:49:15;;;;;;;4.10;1.80;;;;;;;26.19;41.80;99150.56;6068356;23;20160;-87
2022/07/04 05:51:42;;;;;;;2.50;1.30;;;;;;;26.28;42.51;99151.34;6068130;23;20237;-87
2022/07/04 05:54:09;;;;;;;4.07;1.30;;;;;;;26.40;42.01;99152.59;6067377;23;20264;-88
2022/07/04 05:56:37;;;;;;;2.77;1.20;;;;;;;26.49;41.85;99155.03;6043010;23;20153;-88
2022/07/04 05:59:04;;;;;;;3.37;1.50;;;;;;;26.48;41.57;99155.22;6043040;23;20210;-87
2022/07/04 06:01:31;;;;;;;8.73;1.60;;;;;;;26.65;41.80;99152.19;6066932;23;20328;-87
2022/07/04 06:03:58;;;;;;;6.00;1.50;;;;;;;26.74;41.92;99145.72;6067004;23;20216;-87
2022/07/04 06:06:24;;;;;;;4.50;1.73;;;;;;;26.90;41.49;99147.44;6067951;23;20259;-87
2022/07/04 06:08:50;;;;;;;2.87;1.30;;;;;;;27.12;41.93;99149.19;6067703;23;20176;-87
2022/07/04 06:11:18;;;;;;;4.13;1.70;;;;;;;27.26;41.23;99155.63;6042959;23;20161;-87
2022/07/04 06:13:44;;;;;;;2.70;1.33;;;;;;;27.34;40.41;99150.97;6066595;23;20193;-87
2022/07/04 06:16:11;;;;;;;1.80;1.23;;;;;;;27.26;41.22;99148.38;6066693;23;20171;-88
2022/07/04 06:18:38;;;;;;;5.53;1.70;;;;;;;27.22;40.66;99152.47;6066450;23;20224;-87
2022/07/04 06:21:05;;;;;;;4.03;1.73;;;;;;;27.43;40.96;99146.38;6066746;23;20205;-87
2022/07/04 06:23:32;;;;;;;2.27;1.13;;;;;;;27.68;40.84;99138.78;6066486;23;20171;-88
2022/07/04 06:25:59;;;;;;;5.70;1.27;;;;;;;27.90;40.23;99141.34;6068337;23;20224;-88
2022/07/04 06:28:26;;;;;;;4.00;1.88;;;;;;;28.14;40.27;99134.78;6067624;23;20664;-88
2022/07/04 06:30:52;;;;;;;4.63;1.27;;;;;;;28.46;39.78;99142.31;6066903;23;20153;-88
2022/07/04 06:33:19;;;;;;;4.03;1.17;;;;;;;28.83;39.75;99141.19;6067238;23;20188;-88
2022/07/04 06:35:48;;;;;;;2.90;1.48;;;;;;;29.16;38.02;99144.13;6067400;23;20220;-88
2022/07/04 06:38:19;;;;;;;6.88;1.42;;;;;;;29.32;38.30;99134.91;6067270;23;20168;-88
2022/07/04 06:40:46;;;;;;;4.43;1.60;;;;;;;29.66;37.96;99132.97;6067389;23;20138;-88
2022/07/04 06:43:13;;;;;;;3.45;1.50;;;;;;;30.12;37.43;99125.00;6067945;23;20149;-88
2022/07/04 06:45:40;;;;;;;3.88;1.90;;;;;;;30.11;36.82;99125.22;6068986;23;20220;-87
2022/07/04 06:48:07;;;;;;;4.00;1.70;;;;;;;30.37;36.81;99122.56;6043531;23;20165;-88
2022/07/04 06:50:35;;;;;;;6.40;1.40;;;;;;;30.54;37.20;99118.41;6069571;23;20153;-87
2022/07/04 06:53:04;;;;;;;3.05;1.50;;;;;;;30.87;36.16;99110.25;6068523;23;20188;-86
2022/07/04 06:55:32;;;;;;;2.50;1.42;;;;;;;30.97;36.29;99121.53;6068177;23;20153;-88
2022/07/04 06:57:59;;;;;;;2.95;1.30;;;;;;;31.01;35.99;99115.47;6068947;23;20153;-87
2022/07/04 07:00:26;;;;;;;2.58;1.35;;;;;;;31.03;35.69;99115.22;6043970;23;20264;-88
2022/07/04 07:02:53;;;;;;;3.20;1.65;;;;;;;31.23;35.67;99112.50;6068893;23;20228;-88
2022/07/04 07:05:20;;;;;;;5.47;1.90;;;;;;;31.32;36.33;99114.75;6068537;23;20562;-88
2022/07/04 07:07:47;;;;;;;4.55;1.65;;;;;;;31.37;34.99;99116.81;6068657;23;20153;-88
2022/07/04 07:10:14;;;;;;;3.00;1.63;;;;;;;31.46;34.86;99112.84;6067954;23;20197;-88
2022/07/04 07:12:40;;;;;;;4.00;1.38;;;;;;;31.49;35.13;99104.28;6068640;23;20236;-88
2022/07/04 07:15:08;;;;;;;3.50;1.48;;;;;;;31.42;34.76;99098.06;6068705;23;20160;-88
2022/07/04 07:17:35;;;;;;;2.78;1.33;;;;;;;31.44;34.75;99101.38;6043469;23;20157;-89
2022/07/04 07:20:03;;;;;;;3.17;1.60;;;;;;;31.46;34.98;99099.31;6069400;23;20153;-88
2022/07/04 07:22:31;;;;;;;4.13;1.67;;;;;;;31.75;35.32;99090.59;6043627;23;20157;-87
2022/07/04 07:24:58;;;;;;;2.75;1.52;;;;;;;31.90;33.71;99090.31;6043765;23;20153;-90
2022/07/04 07:27:25;;;;;;;4.93;1.52;;;;;;;32.00;34.71;99086.09;6068818;23;20232;-88
2022/07/04 07:29:52;;;;;;;3.67;1.73;;;;;;;32.13;34.71;99080.56;6043503;23;20496;-88
2022/07/04 07:32:20;;;;;;;4.22;1.52;;;;;;;32.29;34.60;99086.50;6068639;23;20192;-88
2022/07/04 07:34:47;;;;;;;5.25;1.60;;;;;;;32.51;33.67;99087.78;6067455;23;20173;-88
2022/07/04 07:37:14;;;;;;;3.85;1.63;;;;;;;32.61;31.64;99082.72;6069386;23;20152;-89
2022/07/04 07:39:40;;;;;;;6.45;1.13;;;;;;;32.72;33.02;99082.00;6069560;23;20165;-89
2022/07/04 07:42:07;;;;;;;2.55;1.42;;;;;;;32.68;32.65;99086.19;6069366;23;20149;-88
2022/07/04 07:44:34;;;;;;;3.33;1.85;;;;;;;32.56;32.42;99083.41;6070123;23;20157;-89
2022/07/04 07:47:01;;;;;;;3.08;1.85;;;;;;;32.39;32.48;99087.66;6069181;23;20153;-88
2022/07/04 07:49:27;;;;;;;4.28;1.40;;;;;;;32.49;34.44;99089.91;6069256;23;20161;-88
2022/07/04 07:51:56;;;;;;;2.75;1.52;;;;;;;32.60;33.54;99087.31;6069303;23;20149;-88
2022/07/04 07:54:23;;;;;;;2.65;1.42;;;;;;;32.71;32.86;99083.03;6069483;23;20181;-88
2022/07/04 07:56:50;;;;;;;2.85;1.38;;;;;;;32.88;30.73;99081.41;6069249;23;20175;-88
2022/07/04 07:59:17;;;;;;;2.97;1.35;;;;;;;33.01;30.63;99078.56;6068559;23;20172;-89
2022/07/04 08:01:44;;;;;;;5.18;1.05;;;;;;;33.20;30.31;99077.50;6068985;23;20465;-89
2022/07/04 08:06:56;;;;;;;3.20;1.27;;;;;;;33.64;30.20;99078.25;6069101;23;20176;-88
2022/07/04 08:09:22;;;;;;;2.20;1.30;;;;;;;33.68;31.69;99074.00;6068672;23;20244;-87
2022/07/04 08:11:49;;;;;;;3.17;1.50;;;;;;;33.88;30.84;99069.13;6069708;23;20584;-85
2022/07/04 08:14:16;;;;;;;3.90;1.75;;;;;;;34.19;27.80;99065.31;6069144;23;20264;-86
2022/07/04 08:16:42;;;;;;;3.95;1.63;;;;;;;34.48;27.08;99067.97;6069524;23;20156;-86
2022/07/04 08:19:08;;;;;;;4.30;1.60;;;;;;;34.21;28.16;99077.63;6069267;23;20237;-86
2022/07/04 08:21:34;;;;;;;3.38;1.30;;;;;;;34.38;28.21;99075.88;6044194;23;20161;-86
2022/07/04 08:23:59;;;;;;;3.95;1.55;;;;;;;34.36;28.36;99064.41;6069221;23;20538;-85
2022/07/04 08:26:25;;;;;;;3.95;1.48;;;;;;;34.21;28.27;99071.34;6069523;23;20570;-86
2022/07/04 08:28:51;;;;;;;4.18;1.48;;;;;;;34.32;28.81;99071.38;6069144;23;20288;-85
2022/07/04 08:31:18;;;;;;;5.00;1.38;;;;;;;34.49;27.28;99064.16;6070235;23;20221;-86
2022/07/04 08:33:44;;;;;;;4.28;1.00;;;;;;;34.37;25.40;99062.50;6069293;23;20205;-86
2022/07/04 08:36:10;;;;;;;3.05;1.58;;;;;;;34.23;27.25;99067.34;6069327;23;20558;-86
2022/07/04 08:38:35;;;;;;;1.58;0.85;;;;;;;34.44;27.58;99061.31;6069042;23;20480;-86
2022/07/04 08:41:03;;;;;;;3.85;1.55;;;;;;;34.59;25.43;99056.25;6069082;23;20156;-86
2022/07/04 08:43:35;;;;;;;1.25;0.75;;;;;;;34.85;26.15;99065.03;6069030;23;20153;-85
2022/07/04 08:46:03;;;;;;;3.33;1.00;;;;;;;35.12;23.98;99056.13;6069029;23;20145;-86
2022/07/04 08:48:31;;;;;;;1.90;0.73;;;;;;;35.29;25.73;99053.47;6068907;23;20153;-85
2022/07/04 08:51:07;;;;;;;2.55;1.05;;;;;;;35.39;24.85;99055.56;6043955;23;20597;-85
2022/07/04 08:53:37;;;;;;;2.38;1.00;;;;;;;35.49;24.29;99045.69;6068870;23;20180;-86
2022/07/04 08:58:50;;;;;;;2.35;1.00;;;;;;;35.87;20.49;99047.00;6069583;23;20249;-85
2022/07/04 09:01:17;;;;;;;2.60;1.05;;;;;;;35.63;20.47;99046.28;6069153;23;20180;-85
2022/07/04 09:03:44;;;;;;;2.22;0.75;;;;;;;35.41;23.16;99053.44;6068968;23;20173;-85
2022/07/04 09:06:13;;;;;;;2.50;0.80;;;;;;;35.55;22.79;99050.22;6068438;23;20157;-86
2022/07/04 09:08:39;;;;;;;1.90;1.00;;;;;;;35.91;23.97;99053.59;6067559;23;20157;-85
2022/07/04 09:11:06;;;;;;;1.90;0.82;;;;;;;35.97;23.33;99048.00;6067536;23;20201;-85
2022/07/04 09:13:32;;;;;;;2.83;1.05;;;;;;;36.09;21.99;99050.66;6068660;23;20192;-86
2022/07/04 09:15:58;;;;;;;4.40;1.20;;;;;;;36.02;22.81;99045.38;6068677;23;20179;-86
2022/07/04 09:18:29;;;;;;;1.52;0.68;;;;;;;36.05;21.98;99049.53;6043619;23;20185;-86
2022/07/04 09:21:08;;;;;;;6.30;0.90;;;;;;;36.23;19.76;99047.38;6067439;23;20153;-87
2022/07/04 09:23:38;;;;;;;4.65;0.95;;;;;;;36.23;21.02;99057.47;6069358;23;20224;-85
2022/07/04 09:26:21;;;;;;;2.42;0.68;;;;;;;36.33;19.56;99052.16;6069023;23;20180;-86
2022/07/04 09:28:53;;;;;;;1.88;0.73;;;;;;;36.30;21.46;99049.94;6067883;23;20153;-85
2022/07/04 09:31:23;;;;;;;1.88;0.80;;;;;;;36.35;21.09;99041.81;6068625;23;20157;-85
2022/07/04 09:33:51;;;;;;;2.03;0.93;;;;;;;36.52;21.75;99037.22;6068648;23;20177;-85
2022/07/04 09:36:18;;;;;;;1.48;0.88;;;;;;;36.82;19.42;99031.38;6068514;23;20498;-85
2022/07/04 09:38:44;;;;;;;1.42;0.60;;;;;;;36.85;20.20;99039.03;6068469;23;20212;-85
2022/07/04 09:41:25;;;;;;;2.55;0.90;;;;;;;36.87;20.78;99034.97;6068447;23;20634;-85
2022/07/04 09:44:00;;;;;;;6.22;1.10;;;;;;;36.95;20.15;99034.56;6069613;23;20136;-85
2022/07/04 09:46:26;;;;;;;2.45;1.02;;;;;;;36.80;20.06;99037.06;6068489;23;20182;-85
2022/07/04 09:48:52;;;;;;;7.30;1.10;;;;;;;37.02;20.97;99033.56;6068382;23;20159;-85
2022/07/04 09:51:37;;;;;;;1.88;0.90;;;;;;;37.27;20.19;99028.41;6067255;23;20283;-86
2022/07/04 09:54:30;;;;;;;2.38;0.70;;;;;;;37.51;20.33;99016.13;6068453;23;20187;-85
2022/07/04 09:56:59;;;;;;;1.52;0.60;;;;;;;37.52;20.51;99012.34;6058730;23;20161;-85
2022/07/04 09:59:27;;;;;;;3.85;1.45;;;;;;;37.42;17.52;99017.69;6068721;23;20156;-87
2022/07/04 10:02:06;;;;;;;1.02;0.60;;;;;;;37.60;18.37;99014.59;6068441;23;20149;-85
2022/07/04 10:04:47;;;;;;;2.85;0.77;;;;;;;37.49;19.01;99026.53;6069100;23;20157;-85
2022/07/04 10:07:47;;;;;;;1.83;0.68;;;;;;;37.63;19.12;99014.09;6068323;23;20180;-85
2022/07/04 10:10:28;;;;;;;1.48;0.45;;;;;;;37.72;18.44;99014.44;6068287;23;20617;-85
2022/07/04 10:13:07;;;;;;;1.35;0.38;;;;;;;37.58;16.01;99011.28;6067084;23;20268;-86
2022/07/04 10:15:35;;;;;;;1.70;0.40;;;;;;;37.59;18.97;99006.63;6068386;23;20232;-86
2022/07/04 10:18:01;;;;;;;1.75;0.50;;;;;;;37.08;18.50;99007.97;6070166;23;20180;-85
2022/07/04 10:20:26;;;;;;;1.00;0.50;;;;;;;37.17;17.97;99014.63;6070297;23;20536;-86
2022/07/04 10:22:52;;;;;;;1.10;0.55;;;;;;;37.58;16.86;99007.75;6045231;23;20489;-86
2022/07/04 10:25:18;;;;;;;3.10;0.70;;;;;;;37.71;17.85;99005.38;6070494;23;20157;-85
2022/07/04 10:27:44;;;;;;;2.10;0.70;;;;;;;37.55;18.24;99007.16;6045724;23;20153;-85
2022/07/04 10:30:14;;;;;;;1.33;0.60;;;;;;;37.65;18.44;99011.91;6070680;23;20224;-86
2022/07/04 10:32:43;;;;;;;0.60;0.40;;;;;;;37.90;17.89;99001.22;6070134;23;20543;-86
2022/07/04 10:35:11;;;;;;;1.80;0.77;;;;;;;38.29;17.45;99003.75;6070190;23;20153;-86
2022/07/04 10:38:00;;;;;;;1.05;0.50;;;;;;;38.30;18.20;99006.22;6070067;23;20578;-86
2022/07/04 10:40:46;;;;;;;2.35;0.82;;;;;;;38.54;18.72;99003.94;6070549;23;20184;-85
2022/07/04 10:43:42;;;;;;;1.35;0.77;;;;;;;37.86;16.43;98999.28;6070516;23;20213;-86
2022/07/04 10:46:14;;;;;;;2.05;0.88;;;;;;;37.56;19.19;98988.84;6070790;23;20148;-85
2022/07/04 10:49:05;;;;;;;1.30;0.40;;;;;;;37.38;15.61;98987.25;6070727;23;20160;-86
2022/07/04 10:51:45;;;;;;;0.38;0.30;;;;;;;37.27;16.23;98998.31;6070557;23;20141;-85
2022/07/04 10:54:14;;;;;;;1.65;0.60;;;;;;;37.43;15.87;98990.06;6069978;23;20177;-85
2022/07/04 10:56:53;;;;;;;0.32;0.17;;;;;;;37.85;14.52;98976.53;6068963;23;20537;-85
2022/07/04 10:59:20;;;;;;;0.77;0.30;;;;;;;37.53;14.67;98981.97;6070273;23;20152;-86
2022/07/04 11:01:49;;;;;;;1.33;0.28;;;;;;;37.52;15.24;98983.06;6070241;23;20219;-86
2022/07/04 11:04:50;;;;;;;0.95;0.50;;;;;;;37.75;14.80;98983.81;6069924;23;20220;-85
2022/07/04 11:07:17;;;;;;;1.65;0.40;;;;;;;37.79;14.23;98980.28;6070243;23;20562;-85
2022/07/04 11:09:44;;;;;;;0.30;0.20;;;;;;;37.43;13.60;98972.84;6069682;23;20247;-85
2022/07/04 11:12:11;;;;;;;0.68;0.32;;;;;;;37.37;14.26;98973.84;6070224;23;20149;-85
2022/07/04 11:14:47;;;;;;;0.40;0.25;;;;;;;37.76;15.33;98972.63;6070449;23;20240;-85
2022/07/04 11:17:32;;;;;;;1.33;0.45;;;;;;;38.08;14.58;98967.97;6070226;23;20152;-86
2022/07/04 11:20:03;;;;;;;0.63;0.43;;;;;;;38.28;14.97;98956.38;6044778;23;20154;-85
2022/07/04 11:22:29;;;;;;;3.75;0.30;;;;;;;38.16;13.22;98963.94;6044473;23;20181;-85
2022/07/04 11:24:56;;;;;;;0.57;0.20;;;;;;;37.91;13.90;98963.75;6069696;23;20542;-85
2022/07/04 11:27:23;;;;;;;0.75;0.32;;;;;;;38.10;15.07;98954.84;6069764;23;20260;-85
2022/07/04 11:29:55;;;;;;;0.88;0.20;;;;;;;38.29;13.04;98952.50;6069723;23;20181;-85
2022/07/04 11:32:30;;;;;;;0.88;0.28;;;;;;;38.59;12.70;98958.22;6068572;23;20263;-85
2022/07/04 11:34:56;;;;;;;0.63;0.22;;;;;;;38.76;13.57;98959.97;6068476;23;20181;-85
2022/07/04 11:37:22;;;;;;;0.68;0.30;;;;;;;38.80;14.02;98958.34;6069712;23;20165;-85
2022/07/04 11:39:51;;;;;;;0.75;0.30;;;;;;;38.80;15.12;98953.69;6069560;23;20692;-86
2022/07/04 11:45:05;;;;;;;2.90;0.35;;;;;;;38.89;14.64;98951.28;6070084;23;20576;-85
2022/07/04 11:47:39;;;;;;;1.50;0.30;;;;;;;38.96;16.12;98941.69;6069481;23;20638;-85
2022/07/04 11:50:09;;;;;;;2.08;0.88;;;;;;;38.79;15.22;98946.56;6069499;23;20222;-86
2022/07/04 11:52:37;;;;;;;1.33;0.50;;;;;;;38.74;15.57;98946.50;6068324;23;20231;-85